Time;durP1;ratioP1;P1;durP2;ratioP2;P2;SDS_P1;SDS_P2;PMS_P1;PMS_P2;Temp;Humidity;BMP_temperature;BMP_pressure;BME280_temperature;BME280_humidity;BME280_pressure;Samples;Min_cycle;Max_cycle;Signal;HPM_P1;HPM_P2
2022/02/08 00:00:05;;;;;;;;;;;6.50;99.90;;;;;;5215813;27;44091;-78
2022/02/08 00:02:36;;;;;;;;;;;6.50;99.90;;;;;;5215832;27;42912;-79
2022/02/08 00:05:04;;;;;;;;;;;6.50;99.90;;;;;;5197680;27;43909;-79
2022/02/08 00:07:34;;;;;;;;;;;6.50;99.90;;;;;;5216507;27;44263;-79
2022/02/08 00:10:05;;;;;;;;;;;6.50;99.90;;;;;;5197106;27;44404;-78
2022/02/08 00:12:32;;;;;;;;;;;6.50;99.90;;;;;;5197105;27;43714;-79
2022/02/08 00:14:59;;;;;;;;;;;6.50;99.90;;;;;;5196991;27;42840;-79
2022/02/08 00:17:29;;;;;;;;;;;6.50;99.90;;;;;;5196870;27;44334;-79
2022/02/08 00:19:59;;;;;;;;;;;6.50;99.90;;;;;;5197506;27;44912;-79
2022/02/08 00:22:27;;;;;;;;;;;6.50;99.90;;;;;;5196889;27;43530;-79
2022/02/08 00:24:54;;;;;;;;;;;6.50;99.90;;;;;;5215766;27;42914;-79
2022/02/08 00:27:23;;;;;;;;;;;6.50;99.90;;;;;;5215682;27;41909;-79
2022/02/08 00:29:53;;;;;;;;;;;6.50;99.90;;;;;;5215986;27;43218;-79
2022/02/08 00:32:26;;;;;;;;;;;6.50;99.90;;;;;;5215654;27;43020;-78
2022/02/08 00:34:56;;;;;;;;;;;6.50;99.90;;;;;;5197641;27;43739;-78
2022/02/08 00:37:26;;;;;;;;;;;6.50;99.90;;;;;;5215761;27;42520;-80
2022/02/08 00:39:56;;;;;;;;;;;6.50;99.90;;;;;;5216184;27;43781;-78
2022/02/08 00:42:26;;;;;;;;;;;6.50;99.90;;;;;;5197767;27;19995;-79
2022/02/08 00:47:52;;;;;;;;;;;6.40;99.90;;;;;;5175995;27;43005;-79
2022/02/08 00:50:19;;;;;;;;;;;6.50;99.90;;;;;;5216225;27;43657;-78
2022/02/08 00:52:49;;;;;;;;;;;6.50;99.90;;;;;;5216043;27;44271;-78
2022/02/08 00:55:16;;;;;;;;;;;6.50;99.90;;;;;;5196921;27;43849;-78
2022/02/08 00:57:43;;;;;;;;;;;6.50;99.90;;;;;;5196684;27;43881;-78
2022/02/08 01:00:11;;;;;;;;;;;6.50;99.90;;;;;;5215694;27;44078;-78
2022/02/08 01:02:41;;;;;;;;;;;6.50;99.90;;;;;;5196563;27;44227;-79
2022/02/08 01:05:11;;;;;;;;;;;6.50;99.90;;;;;;5215971;27;43065;-79
2022/02/08 01:07:42;;;;;;;;;;;6.40;99.90;;;;;;5215336;27;42943;-78
2022/02/08 01:10:10;;;;;;;;;;;6.40;99.90;;;;;;5196744;27;43878;-78
2022/02/08 01:12:43;;;;;;;;;;;6.40;99.90;;;;;;5217194;27;19992;-78
2022/02/08 01:15:14;;;;;;;;;;;6.40;99.90;;;;;;5215396;27;42975;-78
2022/02/08 01:17:46;;;;;;;;;;;6.40;99.90;;;;;;5196640;27;44061;-79
2022/02/08 01:20:21;;;;;;;;;;;6.40;99.90;;;;;;5215812;27;43767;-78
2022/02/08 01:22:49;;;;;;;;;;;6.40;99.90;;;;;;5216174;27;43792;-78
2022/02/08 01:25:27;;;;;;;;;;;6.40;99.90;;;;;;5197354;27;44934;-80
2022/02/08 01:28:10;;;;;;;;;;;6.40;99.90;;;;;;5197088;27;45782;-79
2022/02/08 01:38:49;;;;;;;;;;;6.40;99.90;;;;;;5216029;27;43194;-79
2022/02/08 01:46:56;;;;;;;;;;;6.40;99.90;;;;;;5215876;27;43353;-78
2022/02/08 01:51:53;;;;;;;;;;;6.40;99.90;;;;;;5215097;27;44210;-78
2022/02/08 01:54:24;;;;;;;;;;;6.40;99.90;;;;;;5215275;27;42434;-78
2022/02/08 01:56:54;;;;;;;;;;;6.40;99.90;;;;;;5215127;27;44219;-79
2022/02/08 01:59:22;;;;;;;;;;;6.40;99.90;;;;;;5196172;27;43922;-79
2022/02/08 02:01:52;;;;;;;;;;;6.50;99.90;;;;;;5214750;27;43048;-78
2022/02/08 02:04:22;;;;;;;;;;;6.40;99.90;;;;;;5196841;27;45100;-78
2022/02/08 02:06:52;;;;;;;;;;;6.50;99.90;;;;;;5215719;27;43794;-78
2022/02/08 02:09:23;;;;;;;;;;;6.40;99.90;;;;;;5214970;27;43538;-78
2022/02/08 02:11:55;;;;;;;;;;;6.50;99.90;;;;;;5196976;27;42487;-78
2022/02/08 02:14:25;;;;;;;;;;;6.50;99.90;;;;;;5215601;27;42841;-78
2022/02/08 02:16:57;;;;;;;;;;;6.50;99.90;;;;;;5215698;27;43522;-79
2022/02/08 02:19:27;;;;;;;;;;;6.50;99.90;;;;;;5196882;27;43927;-78
2022/02/08 02:21:55;;;;;;;;;;;6.50;99.90;;;;;;5196654;27;44719;-78
2022/02/08 02:24:25;;;;;;;;;;;6.50;99.90;;;;;;5196795;27;43090;-78
2022/02/08 02:26:52;;;;;;;;;;;6.50;99.90;;;;;;5196119;27;42951;-78
2022/02/08 02:29:21;;;;;;;;;;;6.50;99.90;;;;;;5214921;27;42956;-79
2022/02/08 02:31:54;;;;;;;;;;;6.50;99.90;;;;;;5196185;27;43628;-78
2022/02/08 02:34:24;;;;;;;;;;;6.50;99.90;;;;;;5196945;27;44227;-79
2022/02/08 02:36:54;;;;;;;;;;;6.50;99.90;;;;;;5196199;27;43514;-79
2022/02/08 02:39:22;;;;;;;;;;;6.50;99.90;;;;;;5196614;27;43230;-78
2022/02/08 02:41:49;;;;;;;;;;;6.50;99.90;;;;;;5196262;27;42977;-79
2022/02/08 02:44:19;;;;;;;;;;;6.50;99.90;;;;;;5196149;27;43825;-78
2022/02/08 02:46:47;;;;;;;;;;;6.50;99.90;;;;;;5214923;27;43280;-79
2022/02/08 02:49:14;;;;;;;;;;;6.50;99.90;;;;;;5215654;27;43760;-79
2022/02/08 02:51:42;;;;;;;;;;;6.50;99.90;;;;;;5197579;27;43160;-79
2022/02/08 02:54:13;;;;;;;;;;;6.50;99.90;;;;;;5198064;27;43422;-78
2022/02/08 02:56:40;;;;;;;;;;;6.50;99.90;;;;;;5216186;27;43961;-79
2022/02/08 02:59:08;;;;;;;;;;;6.50;99.90;;;;;;5197509;27;43230;-79
2022/02/08 03:01:59;;;;;;;;;;;6.50;99.90;;;;;;5288796;27;43865;-78
2022/02/08 03:20:42;;;;;;;;;;;6.60;99.90;;;;;;5216769;27;43826;-78
2022/02/08 03:23:09;;;;;;;;;;;6.50;99.90;;;;;;5197398;27;42416;-78
2022/02/08 03:25:36;;;;;;;;;;;6.60;99.90;;;;;;5216306;27;43764;-78
2022/02/08 03:28:08;;;;;;;;;;;6.60;99.90;;;;;;5198410;27;43119;-79
2022/02/08 03:30:38;;;;;;;;;;;6.60;99.90;;;;;;5216796;27;43959;-79
2022/02/08 03:33:09;;;;;;;;;;;6.60;99.90;;;;;;5216105;27;43748;-79
2022/02/08 03:35:42;;;;;;;;;;;6.60;99.90;;;;;;5198232;27;42975;-79
2022/02/08 03:38:11;;;;;;;;;;;6.60;99.90;;;;;;5197176;27;42169;-78
2022/02/08 03:40:52;;;;;;;;;;;6.60;99.90;;;;;;5198297;27;43822;-79
2022/02/08 03:45:52;;;;;;;;;;;6.60;99.90;;;;;;5217047;27;20395;-79
2022/02/08 03:48:22;;;;;;;;;;;6.60;99.90;;;;;;5216587;27;43149;-79
2022/02/08 03:50:53;;;;;;;;;;;6.60;99.90;;;;;;5198160;27;43874;-79
2022/02/08 03:53:26;;;;;;;;;;;6.60;99.90;;;;;;5197176;27;43901;-79
2022/02/08 03:55:56;;;;;;;;;;;6.60;99.90;;;;;;5216524;27;43787;-78
2022/02/08 03:58:23;;;;;;;;;;;6.60;99.90;;;;;;5197109;27;43102;-78
2022/02/08 04:01:05;;;;;;;;;;;6.70;99.90;;;;;;5197509;27;43871;-79
2022/02/08 04:03:40;;;;;;;;;;;6.60;99.90;;;;;;5215811;27;43015;-78
2022/02/08 04:06:09;;;;;;;;;;;6.70;99.90;;;;;;5216639;27;43911;-79
2022/02/08 04:08:36;;;;;;;;;;;6.60;99.90;;;;;;5197834;27;43309;-78
2022/02/08 04:11:03;;;;;;;;;;;6.70;99.90;;;;;;5216516;27;43093;-79
2022/02/08 04:13:41;;;;;;;;;;;6.70;99.90;;;;;;5216283;27;44143;-79
2022/02/08 04:16:25;;;;;;;;;;;6.70;99.90;;;;;;5198434;27;19985;-78
2022/02/08 04:33:08;;;;;;;;;;;6.70;99.90;;;;;;5234165;27;44930;-78
2022/02/08 04:38:51;;;;;;;;;;;6.70;99.90;;;;;;5215800;27;42894;-79
2022/02/08 04:41:26;;;;;;;;;;;6.70;99.90;;;;;;5215937;27;43690;-80
2022/02/08 04:44:12;;;;;;;;;;;6.70;99.90;;;;;;5197625;27;44227;-79
2022/02/08 04:49:09;;;;;;;;;;;6.70;99.90;;;;;;5215747;27;43798;-79
2022/02/08 04:51:42;;;;;;;;;;;6.70;99.90;;;;;;5216287;27;43958;-79
2022/02/08 04:54:31;;;;;;;;;;;6.70;99.90;;;;;;5197522;27;44266;-79
2022/02/08 05:27:26;;;;;;;;;;;6.80;99.90;;;;;;5215862;27;43259;-79
2022/02/08 05:48:51;;;;;;;;;;;6.80;99.90;;;;;;5216599;27;20039;-78
2022/02/08 05:51:22;;;;;;;;;;;6.80;99.90;;;;;;5197134;27;43779;-79
2022/02/08 05:53:49;;;;;;;;;;;6.80;99.90;;;;;;5215127;27;42935;-78
2022/02/08 05:56:19;;;;;;;;;;;6.80;99.90;;;;;;5215031;27;44102;-78
2022/02/08 05:58:47;;;;;;;;;;;6.80;99.90;;;;;;5196305;27;42521;-78
2022/02/08 06:01:15;;;;;;;;;;;6.90;99.90;;;;;;5196377;27;42580;-79
2022/02/08 06:03:42;;;;;;;;;;;6.90;99.90;;;;;;5214912;27;42540;-79
2022/02/08 06:06:15;;;;;;;;;;;6.90;99.90;;;;;;5196210;27;44298;-79
2022/02/08 06:08:42;;;;;;;;;;;6.90;99.90;;;;;;5214959;27;42934;-79
2022/02/08 06:11:15;;;;;;;;;;;6.90;99.90;;;;;;5214905;27;42655;-79
2022/02/08 06:13:42;;;;;;;;;;;6.90;99.90;;;;;;5215620;27;43076;-79
2022/02/08 06:16:17;;;;;;;;;;;6.90;99.90;;;;;;5214907;27;43309;-79
2022/02/08 06:18:45;;;;;;;;;;;6.90;99.90;;;;;;5197284;27;20392;-79
2022/02/08 06:21:12;;;;;;;;;;;6.90;99.90;;;;;;5215181;27;44603;-78
2022/02/08 06:23:43;;;;;;;;;;;6.90;99.90;;;;;;5214874;27;42380;-79
2022/02/08 06:26:14;;;;;;;;;;;6.90;99.90;;;;;;5215520;27;44893;-79
2022/02/08 06:28:43;;;;;;;;;;;6.90;99.90;;;;;;5214888;27;43962;-80
2022/02/08 06:31:10;;;;;;;;;;;6.90;99.90;;;;;;5215280;27;44797;-79
2022/02/08 06:33:37;;;;;;;;;;;6.90;99.90;;;;;;5215276;27;44214;-79
2022/02/08 06:36:04;;;;;;;;;;;6.90;99.90;;;;;;5196007;27;42166;-79
2022/02/08 06:38:32;;;;;;;;;;;6.90;99.90;;;;;;5215264;27;44779;-79
2022/02/08 06:41:01;;;;;;;;;;;6.90;99.90;;;;;;5214683;27;44326;-81
2022/02/08 06:43:30;;;;;;;;;;;7.00;99.90;;;;;;5196063;27;45648;-81
2022/02/08 06:46:00;;;;;;;;;;;7.00;99.90;;;;;;5214878;27;44017;-81
2022/02/08 06:48:38;;;;;;;;;;;7.00;99.90;;;;;;5196369;27;43586;-81
2022/02/08 06:51:05;;;;;;;;;;;7.00;99.90;;;;;;5196364;27;42273;-81
2022/02/08 06:53:32;;;;;;;;;;;7.00;99.90;;;;;;5196166;27;43966;-81
2022/02/08 06:56:03;;;;;;;;;;;7.00;99.90;;;;;;5214661;27;44175;-81
2022/02/08 06:58:47;;;;;;;;;;;7.00;99.90;;;;;;5214927;27;43351;-81
2022/02/08 07:01:14;;;;;;;;;;;7.00;99.90;;;;;;5214556;27;44844;-81
2022/02/08 07:03:46;;;;;;;;;;;7.00;99.90;;;;;;5215626;27;43294;-81
2022/02/08 07:06:16;;;;;;;;;;;7.00;99.90;;;;;;5196762;27;43275;-82
2022/02/08 07:08:43;;;;;;;;;;;7.00;99.90;;;;;;5196039;27;44056;-81
2022/02/08 07:11:16;;;;;;;;;;;7.00;99.90;;;;;;5214768;27;43513;-81
2022/02/08 07:13:44;;;;;;;;;;;7.00;99.90;;;;;;5215358;27;44817;-81
2022/02/08 07:16:14;;;;;;;;;;;7.00;99.90;;;;;;5195950;27;43726;-81
2022/02/08 07:18:41;;;;;;;;;;;7.00;99.90;;;;;;5196508;27;43215;-82
2022/02/08 07:21:09;;;;;;;;;;;7.00;99.90;;;;;;5196087;27;42986;-82
2022/02/08 07:23:41;;;;;;;;;;;7.10;99.90;;;;;;5196978;27;43682;-81
2022/02/08 07:26:08;;;;;;;;;;;7.00;99.90;;;;;;5195981;27;42985;-82
2022/02/08 07:28:38;;;;;;;;;;;7.00;99.90;;;;;;5195793;27;44080;-81
2022/02/08 07:31:13;;;;;;;;;;;7.00;99.90;;;;;;5215087;27;43273;-82
2022/02/08 07:33:47;;;;;;;;;;;7.10;99.90;;;;;;5214937;27;43504;-82
2022/02/08 07:36:33;;;;;;;;;;;7.00;99.90;;;;;;5197716;27;43522;-82
2022/02/08 07:39:00;;;;;;;;;;;7.10;99.90;;;;;;5216699;27;45886;-82
2022/02/08 07:41:38;;;;;;;;;;;7.10;99.90;;;;;;5196969;27;43850;-81
2022/02/08 07:44:10;;;;;;;;;;;7.10;99.90;;;;;;5216067;27;43379;-82
2022/02/08 07:46:38;;;;;;;;;;;7.10;99.90;;;;;;5216072;27;43910;-82
2022/02/08 07:49:05;;;;;;;;;;;7.10;99.90;;;;;;5197156;27;43200;-81
2022/02/08 07:51:35;;;;;;;;;;;7.10;99.90;;;;;;5198001;27;20403;-82
2022/02/08 07:54:03;;;;;;;;;;;7.10;99.90;;;;;;5197159;27;43900;-82
2022/02/08 07:56:31;;;;;;;;;;;7.10;99.90;;;;;;5196970;27;44128;-82
2022/02/08 07:59:00;;;;;;;;;;;7.20;99.90;;;;;;5215783;27;43565;-82
2022/02/08 08:01:27;;;;;;;;;;;7.10;99.90;;;;;;5215479;27;44108;-82
2022/02/08 08:03:54;;;;;;;;;;;7.10;99.90;;;;;;5215849;27;42262;-82
2022/02/08 08:06:22;;;;;;;;;;;7.10;99.90;;;;;;5196907;27;43995;-82
2022/02/08 08:08:49;;;;;;;;;;;7.10;99.90;;;;;;5216399;27;43596;-81
2022/02/08 08:11:22;;;;;;;;;;;7.10;99.90;;;;;;5197519;27;42442;-82
2022/02/08 08:14:01;;;;;;;;;;;7.10;99.90;;;;;;5197189;27;43355;-82
2022/02/08 08:19:37;;;;;;;;;;;7.20;99.90;;;;;;5130244;28;43417;-82
2022/02/08 08:22:06;;;;;;;;;;;7.20;99.90;;;;;;5113219;28;44088;-82
2022/02/08 08:24:34;;;;;;;;;;;7.20;99.90;;;;;;5155778;27;43359;-82
2022/02/08 08:27:01;;;;;;;;;;;7.20;99.90;;;;;;5196906;27;44625;-82
2022/02/08 08:29:28;;;;;;;;;;;7.20;99.90;;;;;;5215641;27;43848;-82
2022/02/08 08:31:56;;;;;;;;;;;7.20;99.90;;;;;;5196970;27;42851;-82
2022/02/08 08:34:23;;;;;;;;;;;7.20;99.90;;;;;;5215591;27;42271;-82
2022/02/08 08:36:51;;;;;;;;;;;7.20;99.90;;;;;;5197039;27;44669;-82
2022/02/08 08:39:23;;;;;;;;;;;7.20;99.90;;;;;;5215467;27;43961;-82
2022/02/08 08:50:54;;;;;;;;;;;7.30;99.90;;;;;;5215835;27;44071;-82
2022/02/08 08:53:07;;;;;;;;;;;7.30;99.90;;;;;;5216833;27;19995;-82
2022/02/08 08:55:34;;;;;;;;;;;7.30;99.90;;;;;;5197050;27;45538;-82
2022/02/08 08:58:04;;;;;;;;;;;7.20;99.90;;;;;;5197296;27;42088;-82
2022/02/08 09:00:31;;;;;;;;;;;7.20;99.90;;;;;;5215413;27;44464;-82
2022/02/08 09:02:58;;;;;;;;;;;7.30;99.90;;;;;;5196439;27;45788;-82
2022/02/08 09:05:25;;;;;;;;;;;7.30;99.90;;;;;;5196695;27;43600;-83
2022/02/08 09:07:53;;;;;;;;;;;7.30;99.90;;;;;;5196493;27;44125;-83
2022/02/08 09:10:25;;;;;;;;;;;7.30;99.90;;;;;;5196589;27;44787;-82
2022/02/08 09:25:49;;;;;;;;;;;7.30;99.90;;;;;;5215282;27;43262;-81
2022/02/08 09:28:22;;;;;;;;;;;7.40;99.90;;;;;;5215044;27;42661;-82
2022/02/08 09:30:58;;;;;;;;;;;7.30;99.90;;;;;;5197141;27;43379;-87
2022/02/08 09:33:26;;;;;;;;;;;7.40;99.90;;;;;;5215432;27;42428;-89
2022/02/08 09:35:53;;;;;;;;;;;7.40;99.90;;;;;;5197180;27;43386;-82
2022/02/08 09:38:20;;;;;;;;;;;7.40;99.90;;;;;;5215860;27;43215;-82
2022/02/08 09:40:50;;;;;;;;;;;7.40;99.90;;;;;;5196539;27;43285;-82
2022/02/08 09:43:20;;;;;;;;;;;7.40;99.90;;;;;;5196303;27;44014;-82
2022/02/08 09:45:49;;;;;;;;;;;7.40;99.90;;;;;;5215748;27;43897;-82
2022/02/08 09:48:25;;;;;;;;;;;7.50;99.90;;;;;;5215128;27;44131;-82
2022/02/08 09:50:53;;;;;;;;;;;7.50;99.90;;;;;;5196655;27;44567;-82
2022/02/08 09:53:29;;;;;;;;;;;7.50;99.90;;;;;;5196970;27;43328;-82
2022/02/08 09:55:57;;;;;;;;;;;7.50;99.90;;;;;;5197123;27;23526;-82
2022/02/08 09:58:24;;;;;;;;;;;7.50;99.90;;;;;;5215607;27;44250;-82
2022/02/08 10:01:03;;;;;;;;;;;7.50;99.90;;;;;;5196323;27;43549;-82
2022/02/08 10:03:30;;;;;;;;;;;7.50;99.90;;;;;;5215084;27;43526;-82
2022/02/08 10:05:57;;;;;;;;;;;7.50;99.90;;;;;;5196275;27;43270;-82
2022/02/08 10:08:25;;;;;;;;;;;7.60;99.90;;;;;;5196285;27;43741;-80
2022/02/08 10:10:54;;;;;;;;;;;7.60;99.90;;;;;;5214988;27;44768;-83
2022/02/08 10:13:41;;;;;;;;;;;7.60;99.90;;;;;;5196262;27;44693;-84
2022/02/08 10:19:24;;;;;;;;;;;7.60;99.90;;;;;;5215479;27;44779;-83
2022/02/08 10:22:02;;;;;;;;;;;7.60;99.90;;;;;;5215424;27;44257;-83
2022/02/08 10:24:32;;;;;;;;;;;7.60;99.90;;;;;;5196812;27;45437;-83
2022/02/08 10:27:04;;;;;;;;;;;7.60;99.90;;;;;;5197803;27;20411;-83
2022/02/08 10:30:26;;;;;;;;;;;7.70;99.90;;;;;;5196625;27;44839;-83
2022/02/08 10:38:05;;;;;;;;;;;7.70;99.90;;;;;;5214955;27;44975;-82
2022/02/08 10:40:38;;;;;;;;;;;7.70;99.90;;;;;;5214914;27;42935;-83
2022/02/08 10:43:12;;;;;;;;;;;7.70;99.90;;;;;;5196497;27;44032;-83
2022/02/08 10:45:40;;;;;;;;;;;7.70;99.90;;;;;;5196572;27;43569;-83
2022/02/08 10:48:11;;;;;;;;;;;7.70;99.90;;;;;;5214920;27;44241;-82
2022/02/08 10:50:41;;;;;;;;;;;7.70;99.90;;;;;;5196808;27;44259;-82
2022/02/08 10:53:11;;;;;;;;;;;7.70;99.90;;;;;;5215350;27;43869;-83
2022/02/08 10:55:50;;;;;;;;;;;7.70;99.90;;;;;;5196700;27;43310;-82
2022/02/08 10:58:30;;;;;;;;;;;7.70;99.90;;;;;;5197822;27;21072;-82
2022/02/08 11:01:12;;;;;;;;;;;7.80;99.90;;;;;;5215550;27;43529;-82
2022/02/08 11:03:52;;;;;;;;;;;7.70;99.90;;;;;;5197050;27;44068;-82
2022/02/08 11:06:28;;;;;;;;;;;7.80;99.90;;;;;;5215026;27;43049;-81
2022/02/08 11:09:40;;;;;;;;;;;7.80;99.90;;;;;;5197205;27;43999;-81
2022/02/08 11:12:03;;;;;;;;;;;7.70;99.90;;;;;;5212993;27;44089;-81
2022/02/08 11:22:34;;;;;;;;;;;7.70;99.90;;;;;;5216022;27;44004;-81
2022/02/08 11:25:13;;;;;;;;;;;7.80;99.90;;;;;;5198226;27;44234;-80
2022/02/08 11:27:47;;;;;;;;;;;7.70;99.90;;;;;;5198134;27;43933;-81
2022/02/08 11:30:19;;;;;;;;;;;7.80;99.90;;;;;;5216714;27;45620;-81
2022/02/08 11:44:32;;;;;;;;;;;7.80;99.90;;;;;;5216401;27;45169;-81
2022/02/08 11:49:42;;;;;;;;;;;7.80;99.90;;;;;;5216357;27;43933;-81
2022/02/08 12:00:41;;;;;;;;;;;7.90;99.90;;;;;;5216901;27;19992;-81
2022/02/08 12:02:56;;;;;;;;;;;7.90;99.90;;;;;;5204789;27;43132;-81
2022/02/08 12:07:57;;;;;;;;;;;7.90;99.90;;;;;;5215874;27;42927;-81
2022/02/08 12:10:44;;;;;;;;;;;7.90;99.90;;;;;;5197596;27;44008;-81
2022/02/08 12:13:30;;;;;;;;;;;8.00;99.90;;;;;;5197050;27;44211;-81
2022/02/08 13:00:56;;;;;;;;;;;8.00;99.90;;;;;;5215681;27;44478;-81
2022/02/08 13:03:51;;;;;;;;;;;8.00;99.90;;;;;;5215070;27;19996;-81
2022/02/08 14:01:58;;;;;;;;;;;8.20;99.90;;;;;;5214955;27;44954;-80
2022/02/08 14:07:19;;;;;;;;;;;8.20;99.90;;;;;;5215264;27;44189;-80
2022/02/08 14:10:14;;;;;;;;;;;8.20;99.90;;;;;;5198916;27;42955;-80
2022/02/08 14:18:25;;;;;;;;;;;8.20;99.90;;;;;;5214992;27;44327;-80
2022/02/08 14:26:01;;;;;;;;;;;8.20;99.90;;;;;;5215109;27;42797;-80
2022/02/08 14:37:27;;;;;;;;;;;8.30;99.90;;;;;;5216076;27;21099;-80
2022/02/08 15:10:19;;;;;;;;;;;8.40;99.90;;;;;;5216314;27;43517;-79
2022/02/08 15:12:56;;;;;;;;;;;8.40;99.90;;;;;;5198071;27;43185;-77
2022/02/08 15:17:53;;;;;;;;;;;8.40;99.90;;;;;;5215884;27;43220;-80
2022/02/08 15:20:22;;;;;;;;;;;8.40;99.90;;;;;;5215466;27;43510;-80
2022/02/08 15:22:51;;;;;;;;;;;8.40;99.90;;;;;;5196292;27;43939;-80
2022/02/08 15:25:19;;;;;;;;;;;8.40;99.90;;;;;;5215662;27;44958;-80
2022/02/08 15:27:47;;;;;;;;;;;8.40;99.90;;;;;;5195933;27;43152;-80
2022/02/08 15:30:14;;;;;;;;;;;8.40;99.90;;;;;;5214193;27;42632;-80
2022/02/08 15:32:43;;;;;;;;;;;8.40;99.90;;;;;;5215617;27;43079;-79
2022/02/08 15:35:10;;;;;;;;;;;8.40;99.90;;;;;;5196726;27;45711;-79
2022/02/08 15:37:37;;;;;;;;;;;8.40;99.90;;;;;;5197982;27;19991;-80
2022/02/08 15:40:07;;;;;;;;;;;8.40;99.90;;;;;;5196704;27;44201;-80
2022/02/08 15:42:39;;;;;;;;;;;8.40;99.90;;;;;;5215987;27;44159;-79
2022/02/08 15:45:24;;;;;;;;;;;8.40;99.90;;;;;;5215888;27;43423;-79
2022/02/08 15:47:52;;;;;;;;;;;8.40;99.90;;;;;;5197658;27;46152;-79
2022/02/08 15:50:27;;;;;;;;;;;8.40;99.90;;;;;;5215912;27;44069;-79
2022/02/08 15:55:44;;;;;;;;;;;8.40;99.90;;;;;;5215680;27;44136;-79
2022/02/08 15:58:22;;;;;;;;;;;8.40;99.90;;;;;;5197727;27;43775;-79
2022/02/08 16:09:24;;;;;;;;;;;8.40;99.90;;;;;;5216896;27;20406;-79
2022/02/08 16:28:13;;;;;;;;;;;8.40;99.90;;;;;;5216291;27;44270;-79
2022/02/08 16:33:56;;;;;;;;;;;8.40;99.90;;;;;;5215677;27;42400;-79
2022/02/08 17:00:26;;;;;;;;;;;8.40;99.90;;;;;;5215364;27;45444;-79
2022/02/08 17:03:13;;;;;;;;;;;8.40;99.90;;;;;;5199521;27;45581;-79
2022/02/08 17:05:40;;;;;;;;;;;8.40;99.90;;;;;;5197313;27;43229;-79
2022/02/08 17:08:12;;;;;;;;;;;8.40;99.90;;;;;;5215094;27;42758;-79
2022/02/08 17:10:46;;;;;;;;;;;8.40;99.90;;;;;;5215408;27;43770;-79
2022/02/08 17:16:08;;;;;;;;;;;8.40;99.90;;;;;;5215966;27;42949;-80
2022/02/08 17:46:33;;;;;;;;;;;8.40;99.90;;;;;;5216011;27;43397;-79
2022/02/08 17:48:56;;;;;;;;;;;8.40;99.90;;;;;;5215357;27;43347;-80
2022/02/08 17:51:23;;;;;;;;;;;8.40;99.90;;;;;;5196384;27;44709;-79
2022/02/08 17:54:12;;;;;;;;;;;8.40;99.90;;;;;;5215711;27;45619;-79
2022/02/08 17:56:39;;;;;;;;;;;8.40;99.90;;;;;;5215520;27;44971;-79
2022/02/08 17:59:10;;;;;;;;;;;8.40;99.90;;;;;;5196643;27;45053;-79
2022/02/08 18:01:40;;;;;;;;;;;8.40;99.90;;;;;;5214800;27;43266;-79
2022/02/08 18:04:07;;;;;;;;;;;8.40;99.90;;;;;;5196771;27;44201;-79
2022/02/08 18:06:34;;;;;;;;;;;8.40;99.90;;;;;;5196183;27;45822;-79
2022/02/08 18:09:02;;;;;;;;;;;8.40;99.90;;;;;;5215155;27;43525;-79
2022/02/08 18:11:36;;;;;;;;;;;8.40;99.90;;;;;;5196877;27;43432;-79
2022/02/08 18:14:04;;;;;;;;;;;8.40;99.90;;;;;;5214962;27;43306;-79
2022/02/08 18:16:34;;;;;;;;;;;8.40;99.90;;;;;;5196858;27;43478;-79
2022/02/08 18:19:10;;;;;;;;;;;8.40;99.90;;;;;;5215469;27;44161;-79
2022/02/08 18:21:50;;;;;;;;;;;8.40;99.90;;;;;;5196217;27;42612;-79
2022/02/08 19:07:00;;;;;;;;;;;8.40;99.90;;;;;;5215303;27;45516;-80
2022/02/08 19:21:55;;;;;;;;;;;8.40;99.90;;;;;;5128651;28;44326;-79
2022/02/08 19:24:22;;;;;;;;;;;8.40;99.90;;;;;;5111825;28;42717;-79
2022/02/08 19:26:50;;;;;;;;;;;8.40;99.90;;;;;;5171341;27;44197;-80
2022/02/08 19:29:20;;;;;;;;;;;8.40;99.90;;;;;;5214750;27;42954;-80
2022/02/08 19:31:47;;;;;;;;;;;8.40;99.90;;;;;;5197672;27;43398;-79
2022/02/08 19:34:15;;;;;;;;;;;8.40;99.90;;;;;;5216188;27;43932;-80
2022/02/08 19:36:44;;;;;;;;;;;8.40;99.90;;;;;;5197309;27;43752;-80
2022/02/08 19:39:12;;;;;;;;;;;8.40;99.90;;;;;;5216017;27;44290;-80
2022/02/08 19:41:39;;;;;;;;;;;8.40;99.90;;;;;;5197562;27;32880;-79
2022/02/08 19:44:22;;;;;;;;;;;8.40;99.90;;;;;;5197357;27;44752;-80
2022/02/08 19:46:55;;;;;;;;;;;8.40;99.90;;;;;;5197320;27;42943;-79
2022/02/08 19:49:22;;;;;;;;;;;8.40;99.90;;;;;;5197207;27;43943;-79
2022/02/08 19:51:53;;;;;;;;;;;8.40;99.90;;;;;;5196990;27;43493;-80
2022/02/08 19:54:30;;;;;;;;;;;8.40;99.90;;;;;;5216620;27;44223;-80
2022/02/08 19:57:06;;;;;;;;;;;8.40;99.90;;;;;;5198202;27;44789;-79
2022/02/08 19:59:36;;;;;;;;;;;8.50;99.90;;;;;;5216645;27;43954;-79
2022/02/08 20:02:10;;;;;;;;;;;8.40;99.90;;;;;;5215564;27;45673;-80
2022/02/08 20:04:38;;;;;;;;;;;8.40;99.90;;;;;;5197405;27;43536;-79
2022/02/08 20:07:06;;;;;;;;;;;8.40;99.90;;;;;;5216623;27;44563;-80
2022/02/08 20:09:33;;;;;;;;;;;8.50;99.90;;;;;;5216372;27;44790;-80
2022/02/08 20:12:20;;;;;;;;;;;8.40;99.90;;;;;;5200869;27;45894;-79
2022/02/08 20:14:54;;;;;;;;;;;8.40;99.90;;;;;;5216125;27;42859;-80
2022/02/08 20:17:22;;;;;;;;;;;8.50;99.90;;;;;;5196941;27;44301;-80
2022/02/08 20:19:56;;;;;;;;;;;8.50;99.90;;;;;;5196981;27;44258;-80
2022/02/08 20:22:25;;;;;;;;;;;8.50;99.90;;;;;;5215620;27;43542;-79
2022/02/08 20:24:53;;;;;;;;;;;8.50;99.90;;;;;;5215524;27;45349;-79
2022/02/08 20:29:57;;;;;;;;;;;8.50;99.90;;;;;;5216745;27;43373;-79
2022/02/08 20:32:24;;;;;;;;;;;8.40;99.90;;;;;;5197567;27;43259;-80
2022/02/08 20:34:56;;;;;;;;;;;8.40;99.90;;;;;;5215920;27;43887;-80
2022/02/08 20:37:26;;;;;;;;;;;8.40;99.90;;;;;;5215666;27;44055;-79
2022/02/08 20:39:55;;;;;;;;;;;8.40;99.90;;;;;;5215383;27;42518;-80
2022/02/08 20:42:25;;;;;;;;;;;8.50;99.90;;;;;;5197729;27;19989;-80
2022/02/08 20:44:55;;;;;;;;;;;8.50;99.90;;;;;;5196722;27;42988;-79
2022/02/08 20:47:27;;;;;;;;;;;8.50;99.90;;;;;;5216005;27;45371;-79
2022/02/08 20:50:10;;;;;;;;;;;8.40;99.90;;;;;;5215611;27;43343;-79
2022/02/08 20:52:42;;;;;;;;;;;8.50;99.90;;;;;;5217183;27;20025;-80
2022/02/08 20:55:12;;;;;;;;;;;8.50;99.90;;;;;;5196905;27;44219;-80
2022/02/08 20:57:43;;;;;;;;;;;8.50;99.90;;;;;;5216530;27;43956;-79
2022/02/08 21:00:14;;;;;;;;;;;8.50;99.90;;;;;;5197377;27;42631;-80
2022/02/08 21:02:54;;;;;;;;;;;8.50;99.90;;;;;;5215508;27;44444;-80
2022/02/08 21:08:00;;;;;;;;;;;8.40;99.90;;;;;;5215545;27;43908;-79
2022/02/08 21:10:34;;;;;;;;;;;8.50;99.90;;;;;;5215526;27;43877;-80
2022/02/08 21:13:15;;;;;;;;;;;8.50;99.90;;;;;;5198565;27;19992;-80
2022/02/08 21:15:44;;;;;;;;;;;8.50;99.90;;;;;;5215447;27;42776;-80
2022/02/08 21:18:12;;;;;;;;;;;8.50;99.90;;;;;;5196421;27;45858;-80
2022/02/08 21:20:41;;;;;;;;;;;8.50;99.90;;;;;;5197548;27;19985;-79
2022/02/08 21:23:09;;;;;;;;;;;8.50;99.90;;;;;;5196561;27;43976;-80
2022/02/08 21:25:38;;;;;;;;;;;8.50;99.90;;;;;;5215333;27;43858;-80
2022/02/08 21:28:09;;;;;;;;;;;8.40;99.90;;;;;;5215166;27;42802;-80
2022/02/08 21:31:17;;;;;;;;;;;8.50;99.90;;;;;;5197467;27;44251;-80
2022/02/08 21:49:45;;;;;;;;;;;8.50;99.90;;;;;;5215980;27;44143;-80
2022/02/08 21:52:33;;;;;;;;;;;8.50;99.90;;;;;;5196475;27;43112;-80
2022/02/08 21:55:06;;;;;;;;;;;8.50;99.90;;;;;;5196708;27;43335;-80
2022/02/08 21:57:52;;;;;;;;;;;8.50;99.90;;;;;;5196921;27;43169;-80
2022/02/08 22:00:23;;;;;;;;;;;8.50;99.90;;;;;;5215753;27;46401;-80
2022/02/08 22:02:50;;;;;;;;;;;8.50;99.90;;;;;;5215075;27;43151;-80
2022/02/08 22:05:20;;;;;;;;;;;8.50;99.90;;;;;;5197383;27;44217;-80
2022/02/08 22:08:11;;;;;;;;;;;8.50;99.90;;;;;;5198504;27;45971;-80
2022/02/08 22:21:12;;;;;;;;;;;8.50;99.90;;;;;;5215285;27;44262;-80
2022/02/08 22:31:31;;;;;;;;;;;8.50;99.90;;;;;;5215720;27;43577;-80
2022/02/08 22:34:22;;;;;;;;;;;8.50;99.90;;;;;;5215694;27;43954;-80
2022/02/08 22:39:48;;;;;;;;;;;8.50;99.90;;;;;;5215444;27;44143;-80
2022/02/08 22:42:14;;;;;;;;;;;8.50;99.90;;;;;;5215370;27;44212;-80
2022/02/08 22:44:52;;;;;;;;;;;8.50;99.90;;;;;;5196801;27;45726;-80
2022/02/08 22:47:19;;;;;;;;;;;8.50;99.90;;;;;;5196207;27;43468;-80
2022/02/08 22:49:47;;;;;;;;;;;8.50;99.90;;;;;;5196763;27;43917;-80
2022/02/08 22:52:14;;;;;;;;;;;8.50;99.90;;;;;;5196722;27;43232;-80
2022/02/08 22:54:42;;;;;;;;;;;8.50;99.90;;;;;;5215522;27;43339;-79
2022/02/08 22:57:10;;;;;;;;;;;8.50;99.90;;;;;;5196246;27;43697;-80
2022/02/08 22:59:37;;;;;;;;;;;8.50;99.90;;;;;;5196150;27;43245;-80
2022/02/08 23:02:06;;;;;;;;;;;8.50;99.90;;;;;;5195932;27;44142;-80
2022/02/08 23:04:33;;;;;;;;;;;8.50;99.90;;;;;;5215066;27;43832;-80
2022/02/08 23:07:01;;;;;;;;;;;8.50;99.90;;;;;;5215928;27;43379;-79
2022/02/08 23:09:38;;;;;;;;;;;8.50;99.90;;;;;;5216188;27;45511;-80
2022/02/08 23:36:59;;;;;;;;;;;8.50;99.90;;;;;;5216794;27;43855;-80
2022/02/08 23:39:29;;;;;;;;;;;8.50;99.90;;;;;;5197298;27;43838;-80
2022/02/08 23:41:59;;;;;;;;;;;8.50;99.90;;;;;;5197886;27;44145;-80
2022/02/08 23:44:28;;;;;;;;;;;8.40;99.90;;;;;;5215956;27;44717;-80
2022/02/08 23:46:56;;;;;;;;;;;8.50;99.90;;;;;;5197562;27;44002;-79
2022/02/08 23:49:28;;;;;;;;;;;8.50;99.90;;;;;;5217175;27;20025;-80
2022/02/08 23:51:58;;;;;;;;;;;8.40;99.90;;;;;;5216733;27;43936;-80